Time;durP1;ratioP1;P1;durP2;ratioP2;P2;SDS_P1;SDS_P2;PMS_P1;PMS_P2;Temp;Humidity;BMP_temperature;BMP_pressure;BME280_temperature;BME280_humidity;BME280_pressure;Samples;Min_cycle;Max_cycle;Signal;HPM_P1;HPM_P2
2022/11/20 00:00:11;;;;;;;24.88;10.40;;;;;;;;;;1032496;28;20022;-72
2022/11/20 00:00:42;;;;;;;21.58;10.77;;;;;;;;;;1031839;28;20026;-71
2022/11/20 00:01:14;;;;;;;23.30;10.73;;;;;;;;;;1031638;28;20105;-72
2022/11/20 00:01:45;;;;;;;22.40;11.30;;;;;;;;;;1028625;28;20034;-72
2022/11/20 00:02:15;;;;;;;22.13;11.52;;;;;;;;;;1031815;28;20045;-72
2022/11/20 00:02:46;;;;;;;28.67;11.68;;;;;;;;;;1032123;28;20023;-72
2022/11/20 00:03:17;;;;;;;23.10;11.65;;;;;;;;;;1032186;28;20108;-72
2022/11/20 00:03:48;;;;;;;16.85;9.68;;;;;;;;;;1027796;28;20487;-72
2022/11/20 00:04:19;;;;;;;22.83;10.32;;;;;;;;;;1028334;28;20030;-72
2022/11/20 00:04:49;;;;;;;23.83;11.60;;;;;;;;;;1024007;28;20035;-72
2022/11/20 00:05:20;;;;;;;22.60;11.60;;;;;;;;;;1024983;28;20027;-72
2022/11/20 00:05:51;;;;;;;30.83;14.38;;;;;;;;;;1028240;28;20031;-72
2022/11/20 00:06:22;;;;;;;29.58;12.07;;;;;;;;;;1025199;28;20090;-72
2022/11/20 00:06:53;;;;;;;29.90;12.18;;;;;;;;;;1024603;28;20075;-72
2022/11/20 00:07:24;;;;;;;27.15;11.63;;;;;;;;;;1028180;28;20528;-72
2022/11/20 00:07:54;;;;;;;34.42;14.25;;;;;;;;;;1028075;28;20517;-72
2022/11/20 00:08:25;;;;;;;29.45;12.80;;;;;;;;;;1032052;28;20034;-72
2022/11/20 00:08:57;;;;;;;22.13;12.98;;;;;;;;;;1032219;28;20023;-72
2022/11/20 00:09:27;;;;;;;23.20;12.65;;;;;;;;;;1032690;28;20027;-72
2022/11/20 00:09:58;;;;;;;30.60;12.55;;;;;;;;;;1032229;28;20034;-72
2022/11/20 00:10:28;;;;;;;26.02;11.65;;;;;;;;;;1031969;28;20026;-72
2022/11/20 00:11:03;;;;;;;30.10;12.55;;;;;;;;;;1028161;28;20386;-72
2022/11/20 00:11:34;;;;;;;23.20;11.63;;;;;;;;;;1028254;28;20081;-72
2022/11/20 00:12:05;;;;;;;25.30;11.65;;;;;;;;;;1028411;28;20491;-72
2022/11/20 00:12:36;;;;;;;28.52;13.25;;;;;;;;;;1031917;28;20030;-72
2022/11/20 00:13:07;;;;;;;23.98;12.60;;;;;;;;;;1027743;28;20391;-72
2022/11/20 00:13:38;;;;;;;24.08;13.00;;;;;;;;;;1028452;28;20023;-72
2022/11/20 00:14:08;;;;;;;25.80;11.77;;;;;;;;;;1029779;28;20042;-71
2022/11/20 00:14:41;;;;;;;24.15;11.77;;;;;;;;;;1028429;28;20023;-72
2022/11/20 00:15:11;;;;;;;26.60;12.40;;;;;;;;;;1028677;28;20049;-72
2022/11/20 00:15:42;;;;;;;27.52;13.27;;;;;;;;;;1036299;23;20083;-72
2022/11/20 00:16:13;;;;;;;26.17;12.35;;;;;;;;;;1034299;28;20497;-71
2022/11/20 00:16:44;;;;;;;30.35;12.50;;;;;;;;;;1032826;28;20029;-72
2022/11/20 00:17:15;;;;;;;21.33;12.05;;;;;;;;;;1032505;28;20022;-72
2022/11/20 00:17:46;;;;;;;27.38;13.38;;;;;;;;;;1032119;28;20022;-72
2022/11/20 00:18:16;;;;;;;29.58;14.63;;;;;;;;;;1032360;28;20037;-72
2022/11/20 00:18:47;;;;;;;41.60;15.63;;;;;;;;;;1032121;28;20518;-72
2022/11/20 00:19:18;;;;;;;31.35;14.27;;;;;;;;;;1032047;28;20022;-72
2022/11/20 00:19:49;;;;;;;35.53;15.35;;;;;;;;;;1032111;28;20058;-72
2022/11/20 00:20:19;;;;;;;38.22;15.30;;;;;;;;;;1032315;28;20080;-72
2022/11/20 00:20:50;;;;;;;34.05;13.52;;;;;;;;;;1031698;28;20018;-72
2022/11/20 00:21:22;;;;;;;29.67;14.80;;;;;;;;;;1028084;28;20044;-72
2022/11/20 00:21:55;;;;;;;28.13;13.93;;;;;;;;;;1027914;28;20030;-72
2022/11/20 00:22:25;;;;;;;36.20;16.20;;;;;;;;;;1027941;28;20019;-72
2022/11/20 00:22:56;;;;;;;31.90;15.00;;;;;;;;;;1028517;28;20069;-72
2022/11/20 00:23:27;;;;;;;35.53;14.60;;;;;;;;;;1031737;28;20076;-72
2022/11/20 00:23:58;;;;;;;40.08;15.80;;;;;;;;;;1027896;28;20044;-72
2022/11/20 00:24:28;;;;;;;45.75;15.50;;;;;;;;;;1032141;28;20026;-72
2022/11/20 00:24:59;;;;;;;31.52;14.50;;;;;;;;;;1027513;28;20034;-72
2022/11/20 00:25:30;;;;;;;29.90;13.93;;;;;;;;;;1028253;28;20425;-73
2022/11/20 00:26:12;;;;;;;31.15;13.30;;;;;;;;;;1027723;28;20030;-73
2022/11/20 00:26:42;;;;;;;24.80;12.10;;;;;;;;;;1025211;28;20027;-72
2022/11/20 00:27:15;;;;;;;23.95;10.75;;;;;;;;;;1028341;28;20030;-72
2022/11/20 00:27:46;;;;;;;25.48;12.93;;;;;;;;;;1025843;28;20070;-72
2022/11/20 00:28:17;;;;;;;25.52;12.15;;;;;;;;;;1023117;29;20367;-72
2022/11/20 00:28:52;;;;;;;28.80;13.20;;;;;;;;;;1022040;29;20027;-72
2022/11/20 00:29:23;;;;;;;40.13;14.30;;;;;;;;;;1024994;28;20023;-72
2022/11/20 00:29:54;;;;;;;32.13;16.20;;;;;;;;;;1024581;28;20027;-72
2022/11/20 00:30:25;;;;;;;32.00;16.67;;;;;;;;;;1023951;28;20035;-72
2022/11/20 00:31:05;;;;;;;37.53;16.20;;;;;;;;;;1027758;28;20023;-72
2022/11/20 00:31:36;;;;;;;34.47;15.73;;;;;;;;;;1027892;28;20391;-72
2022/11/20 00:32:07;;;;;;;33.83;16.05;;;;;;;;;;1029477;28;20050;-72
2022/11/20 00:32:38;;;;;;;36.97;13.10;;;;;;;;;;1027783;28;20069;-72
2022/11/20 00:33:08;;;;;;;38.33;16.77;;;;;;;;;;1028085;28;20030;-72
2022/11/20 00:33:39;;;;;;;33.28;15.23;;;;;;;;;;1028120;28;20128;-72
2022/11/20 00:34:10;;;;;;;28.42;15.75;;;;;;;;;;1028230;28;20391;-72
2022/11/20 00:34:41;;;;;;;27.30;15.65;;;;;;;;;;1031755;28;20509;-72
2022/11/20 00:35:12;;;;;;;29.65;13.90;;;;;;;;;;1032305;28;20026;-72
2022/11/20 00:35:43;;;;;;;38.83;16.38;;;;;;;;;;1031079;28;20669;-72
2022/11/20 00:36:15;;;;;;;31.67;15.90;;;;;;;;;;1027186;28;20054;-72
2022/11/20 00:36:45;;;;;;;44.72;18.98;;;;;;;;;;1026938;28;20019;-72
2022/11/20 00:37:16;;;;;;;36.83;17.95;;;;;;;;;;1028180;28;20030;-72
2022/11/20 00:37:47;;;;;;;35.40;17.55;;;;;;;;;;1028269;28;20113;-72
2022/11/20 00:38:20;;;;;;;33.90;16.38;;;;;;;;;;1032349;28;20026;-72
2022/11/20 00:38:52;;;;;;;38.78;15.80;;;;;;;;;;1031757;28;20479;-72
2022/11/20 00:39:23;;;;;;;34.35;15.00;;;;;;;;;;1031420;28;20026;-72
2022/11/20 00:39:53;;;;;;;40.08;14.93;;;;;;;;;;1031957;28;20058;-72
2022/11/20 00:40:24;;;;;;;25.35;13.05;;;;;;;;;;1032243;28;20045;-72
2022/11/20 00:40:56;;;;;;;27.13;12.25;;;;;;;;;;1030716;28;20033;-72
2022/11/20 00:41:28;;;;;;;24.48;10.75;;;;;;;;;;1032400;28;20450;-72
2022/11/20 00:41:58;;;;;;;25.40;9.68;;;;;;;;;;1030797;28;20061;-72
2022/11/20 00:42:30;;;;;;;18.38;9.07;;;;;;;;;;1031743;28;20033;-72
2022/11/20 00:43:01;;;;;;;19.00;8.52;;;;;;;;;;1026205;28;20431;-72
2022/11/20 00:43:32;;;;;;;20.70;9.70;;;;;;;;;;1024605;28;20024;-73
2022/11/20 00:44:02;;;;;;;15.10;9.32;;;;;;;;;;1024683;28;20118;-73
2022/11/20 00:44:33;;;;;;;24.05;9.68;;;;;;;;;;1028149;28;20018;-73
2022/11/20 00:45:04;;;;;;;23.90;10.45;;;;;;;;;;1031953;28;20026;-72
2022/11/20 00:45:35;;;;;;;21.85;9.32;;;;;;;;;;1031893;28;20091;-72
2022/11/20 00:46:08;;;;;;;30.58;14.45;;;;;;;;;;1027699;28;20031;-72
2022/11/20 00:46:38;;;;;;;37.70;15.10;;;;;;;;;;1027842;28;20425;-72
2022/11/20 00:47:10;;;;;;;28.42;14.00;;;;;;;;;;1028288;28;20115;-73
2022/11/20 00:47:40;;;;;;;43.03;18.13;;;;;;;;;;1031700;28;20026;-73
2022/11/20 00:48:11;;;;;;;34.53;17.20;;;;;;;;;;1031668;28;20767;-73
2022/11/20 00:48:43;;;;;;;36.13;17.67;;;;;;;;;;1031841;28;20113;-73
2022/11/20 00:49:13;;;;;;;36.05;18.42;;;;;;;;;;1031873;28;20379;-73
2022/11/20 00:49:44;;;;;;;32.20;18.55;;;;;;;;;;1031557;28;20029;-73
2022/11/20 00:50:15;;;;;;;41.40;19.60;;;;;;;;;;1031825;28;20113;-73
2022/11/20 00:50:46;;;;;;;32.63;18.55;;;;;;;;;;1031522;28;20038;-73
2022/11/20 00:51:18;;;;;;;28.50;14.55;;;;;;;;;;1032175;28;20026;-73
2022/11/20 00:51:49;;;;;;;32.30;16.98;;;;;;;;;;1032023;28;20073;-73
2022/11/20 00:52:20;;;;;;;33.78;18.83;;;;;;;;;;1033135;28;20031;-72
2022/11/20 00:52:50;;;;;;;33.55;17.52;;;;;;;;;;1032081;28;20029;-72
2022/11/20 00:53:21;;;;;;;29.58;16.15;;;;;;;;;;1027899;28;20023;-72
2022/11/20 00:53:54;;;;;;;37.10;16.45;;;;;;;;;;1025509;28;20038;-72
2022/11/20 00:54:25;;;;;;;35.88;18.25;;;;;;;;;;1026453;28;20031;-72
2022/11/20 00:54:56;;;;;;;32.55;17.17;;;;;;;;;;1029994;28;20030;-72
2022/11/20 00:55:26;;;;;;;32.35;15.98;;;;;;;;;;1028379;28;20475;-72
2022/11/20 00:55:57;;;;;;;29.58;16.65;;;;;;;;;;1027703;28;20031;-72
2022/11/20 00:56:28;;;;;;;36.15;17.40;;;;;;;;;;1028082;28;20018;-72
2022/11/20 00:56:59;;;;;;;35.53;16.65;;;;;;;;;;1026850;28;20034;-72
2022/11/20 00:57:29;;;;;;;31.60;16.38;;;;;;;;;;1031892;28;20109;-72
2022/11/20 00:58:00;;;;;;;34.05;15.65;;;;;;;;;;1032053;28;20034;-72
2022/11/20 00:58:32;;;;;;;30.55;15.48;;;;;;;;;;1032283;28;20026;-72
2022/11/20 00:59:03;;;;;;;28.88;14.55;;;;;;;;;;1031583;28;20154;-72
2022/11/20 00:59:34;;;;;;;32.53;14.93;;;;;;;;;;1032274;28;20131;-72
2022/11/20 01:00:05;;;;;;;33.60;15.13;;;;;;;;;;1027410;28;20466;-72
2022/11/20 01:00:36;;;;;;;27.73;15.20;;;;;;;;;;1027954;28;20483;-72
2022/11/20 01:01:07;;;;;;;33.03;16.23;;;;;;;;;;1027276;28;20019;-72
2022/11/20 01:01:38;;;;;;;26.63;14.27;;;;;;;;;;1027353;28;20117;-72
2022/11/20 01:02:09;;;;;;;29.63;13.30;;;;;;;;;;1025768;28;20023;-71
2022/11/20 01:02:39;;;;;;;34.47;13.57;;;;;;;;;;1031733;28;20030;-72
2022/11/20 01:03:10;;;;;;;38.00;14.13;;;;;;;;;;1035745;28;20028;-72
2022/11/20 01:03:42;;;;;;;74.00;35.22;;;;;;;;;;1036002;28;20029;-73
2022/11/20 01:04:13;;;;;;;74.97;36.78;;;;;;;;;;1033494;28;20391;-73
2022/11/20 01:04:44;;;;;;;78.07;38.05;;;;;;;;;;1031934;28;20525;-73
2022/11/20 01:05:15;;;;;;;55.42;30.83;;;;;;;;;;1031492;28;20022;-73
2022/11/20 01:05:46;;;;;;;57.83;28.80;;;;;;;;;;1031680;28;20033;-72
2022/11/20 01:06:16;;;;;;;45.78;23.08;;;;;;;;;;1030361;28;20541;-72
2022/11/20 01:06:47;;;;;;;39.05;16.92;;;;;;;;;;1029895;28;20038;-72
2022/11/20 01:07:18;;;;;;;30.77;14.07;;;;;;;;;;1025809;28;20079;-72
2022/11/20 01:07:48;;;;;;;34.53;16.75;;;;;;;;;;1025888;28;20023;-72
2022/11/20 01:08:19;;;;;;;38.95;17.08;;;;;;;;;;1027862;28;20027;-72
2022/11/20 01:08:53;;;;;;;31.98;14.57;;;;;;;;;;1031644;28;20060;-72
2022/11/20 01:09:24;;;;;;;35.13;15.40;;;;;;;;;;1032427;28;20497;-72
2022/11/20 01:09:54;;;;;;;32.33;14.05;;;;;;;;;;1035805;28;20029;-72
2022/11/20 01:10:25;;;;;;;30.92;15.70;;;;;;;;;;1032127;28;20050;-72
2022/11/20 01:10:59;;;;;;;28.33;15.23;;;;;;;;;;1031679;28;20200;-72
2022/11/20 01:11:32;;;;;;;39.38;18.40;;;;;;;;;;1031789;28;20029;-72
2022/11/20 01:12:02;;;;;;;41.72;20.45;;;;;;;;;;1031769;28;20018;-72
2022/11/20 01:12:33;;;;;;;46.20;21.02;;;;;;;;;;1030678;28;20030;-72
2022/11/20 01:13:53;;;;;;;38.10;18.73;;;;;;;;;;1034669;28;20017;-72
2022/11/20 01:14:23;;;;;;;40.63;18.17;;;;;;;;;;1032527;28;20019;-72
2022/11/20 01:14:54;;;;;;;30.60;14.55;;;;;;;;;;1027687;28;20027;-72
2022/11/20 01:15:25;;;;;;;37.20;17.48;;;;;;;;;;1027885;28;20030;-72
2022/11/20 01:16:01;;;;;;;39.40;16.98;;;;;;;;;;1027827;28;20537;-72
2022/11/20 01:16:33;;;;;;;33.40;15.30;;;;;;;;;;1028517;28;20026;-72
2022/11/20 01:17:04;;;;;;;37.83;15.98;;;;;;;;;;1029655;28;20204;-72
2022/11/20 01:17:35;;;;;;;28.80;14.93;;;;;;;;;;1029879;28;20105;-72
2022/11/20 01:18:06;;;;;;;35.50;18.05;;;;;;;;;;1026152;28;20019;-72
2022/11/20 01:18:37;;;;;;;35.28;17.20;;;;;;;;;;1026173;28;20026;-72
2022/11/20 01:19:13;;;;;;;40.88;18.17;;;;;;;;;;1027326;28;20080;-72
2022/11/20 01:19:43;;;;;;;43.80;19.27;;;;;;;;;;1028550;28;20081;-72
2022/11/20 01:20:14;;;;;;;40.83;20.02;;;;;;;;;;1031737;28;20076;-72
2022/11/20 01:20:45;;;;;;;54.33;22.98;;;;;;;;;;1031394;28;20113;-72
2022/11/20 01:21:34;;;;;;;43.20;19.52;;;;;;;;;;1031884;28;20022;-72
2022/11/20 01:22:05;;;;;;;26.15;12.35;;;;;;;;;;1034355;28;20045;-72
2022/11/20 01:22:36;;;;;;;33.78;13.18;;;;;;;;;;1032019;28;20027;-72
2022/11/20 01:23:06;;;;;;;26.13;12.02;;;;;;;;;;1031572;28;20018;-72
2022/11/20 01:23:38;;;;;;;29.10;12.02;;;;;;;;;;1031838;28;20090;-72
2022/11/20 01:24:11;;;;;;;33.80;16.17;;;;;;;;;;1027973;28;20027;-72
2022/11/20 01:24:42;;;;;;;30.40;14.00;;;;;;;;;;1026943;28;20438;-72
2022/11/20 01:25:13;;;;;;;30.92;13.60;;;;;;;;;;1028176;28;20515;-72
2022/11/20 01:25:43;;;;;;;27.02;13.88;;;;;;;;;;1027696;28;20022;-72
2022/11/20 01:26:16;;;;;;;30.50;13.45;;;;;;;;;;1026932;28;20030;-72
2022/11/20 01:26:49;;;;;;;29.58;16.92;;;;;;;;;;1031639;28;20065;-72
2022/11/20 01:27:20;;;;;;;34.03;16.55;;;;;;;;;;1027633;28;20022;-72
2022/11/20 01:27:51;;;;;;;31.42;14.02;;;;;;;;;;1031376;28;20393;-72
2022/11/20 01:28:21;;;;;;;24.90;10.48;;;;;;;;;;1031742;28;20029;-72
2022/11/20 01:28:53;;;;;;;24.90;13.13;;;;;;;;;;1030958;28;20125;-72
2022/11/20 01:29:24;;;;;;;19.50;10.82;;;;;;;;;;1035944;28;20026;-72
2022/11/20 01:29:55;;;;;;;19.38;7.53;;;;;;;;;;1030986;28;20025;-72
2022/11/20 01:30:26;;;;;;;19.45;9.20;;;;;;;;;;1023881;28;20031;-72
2022/11/20 01:30:59;;;;;;;28.85;12.52;;;;;;;;;;1027256;28;20167;-72
2022/11/20 01:31:30;;;;;;;32.13;14.75;;;;;;;;;;1028520;28;20017;-72
2022/11/20 01:32:01;;;;;;;32.50;14.10;;;;;;;;;;1032626;28;20516;-72
2022/11/20 01:32:32;;;;;;;28.33;11.05;;;;;;;;;;1031758;28;20022;-72
2022/11/20 01:33:02;;;;;;;34.20;15.20;;;;;;;;;;1031597;28;20023;-72
2022/11/20 01:33:33;;;;;;;28.17;14.80;;;;;;;;;;1031793;28;20077;-72
2022/11/20 01:34:06;;;;;;;31.52;15.20;;;;;;;;;;1031621;28;20049;-72
2022/11/20 01:34:36;;;;;;;30.60;14.77;;;;;;;;;;1031920;28;20062;-71
2022/11/20 01:35:09;;;;;;;26.65;12.32;;;;;;;;;;1031919;28;20019;-71
2022/11/20 01:35:40;;;;;;;23.90;12.38;;;;;;;;;;1035710;28;20025;-71
2022/11/20 01:36:11;;;;;;;25.27;11.35;;;;;;;;;;1035444;28;20049;-72
2022/11/20 01:36:43;;;;;;;17.98;10.18;;;;;;;;;;1031458;28;20040;-72
2022/11/20 01:37:14;;;;;;;27.95;11.02;;;;;;;;;;1030707;28;20525;-72
2022/11/20 01:37:45;;;;;;;22.88;11.40;;;;;;;;;;1027495;28;20072;-72
2022/11/20 01:38:16;;;;;;;26.55;12.68;;;;;;;;;;1027625;28;20515;-72
2022/11/20 01:38:47;;;;;;;20.60;9.50;;;;;;;;;;1025647;28;20031;-72
2022/11/20 01:39:22;;;;;;;19.13;10.23;;;;;;;;;;1025028;28;20061;-72
2022/11/20 01:39:52;;;;;;;24.38;12.50;;;;;;;;;;1025522;28;20023;-72
2022/11/20 01:40:23;;;;;;;15.65;7.80;;;;;;;;;;1025910;28;20031;-72
2022/11/20 01:40:55;;;;;;;20.80;11.40;;;;;;;;;;1029502;28;20023;-72
2022/11/20 01:43:22;;;;;;;18.65;10.15;;;;;;;;;;1031968;28;20289;-72
2022/11/20 01:43:53;;;;;;;22.02;11.63;;;;;;;;;;1030805;28;20028;-72
2022/11/20 01:44:42;;;;;;;24.13;11.52;;;;;;;;;;1027759;28;20085;-72
2022/11/20 01:45:31;;;;;;;20.20;12.10;;;;;;;;;;1025672;28;20028;-72
2022/11/20 01:46:15;;;;;;;23.27;10.60;;;;;;;;;;1029898;28;20030;-72
2022/11/20 01:46:58;;;;;;;21.10;11.32;;;;;;;;;;1030923;28;20056;-72
2022/11/20 01:47:37;;;;;;;19.27;11.15;;;;;;;;;;1030629;28;20018;-73
2022/11/20 01:48:07;;;;;;;17.65;10.50;;;;;;;;;;1031367;28;20022;-72
2022/11/20 01:48:48;;;;;;;24.25;12.07;;;;;;;;;;1031728;28;20022;-72
2022/11/20 01:49:38;;;;;;;25.65;11.75;;;;;;;;;;1031652;28;20026;-72
2022/11/20 01:50:15;;;;;;;16.45;9.52;;;;;;;;;;1034809;28;20030;-72
2022/11/20 01:50:46;;;;;;;13.68;7.05;;;;;;;;;;1031530;28;20589;-72
2022/11/20 01:51:23;;;;;;;23.85;11.02;;;;;;;;;;1027868;28;20051;-72
2022/11/20 01:52:02;;;;;;;17.27;8.68;;;;;;;;;;1027338;28;20053;-72
2022/11/20 01:52:36;;;;;;;22.27;9.32;;;;;;;;;;1025790;28;20459;-72
2022/11/20 01:53:10;;;;;;;18.80;10.27;;;;;;;;;;1027893;28;20090;-72
2022/11/20 01:53:41;;;;;;;21.80;10.35;;;;;;;;;;1027965;28;20050;-72
2022/11/20 01:54:17;;;;;;;32.03;10.25;;;;;;;;;;1026634;28;20031;-73
2022/11/20 01:54:54;;;;;;;21.83;10.55;;;;;;;;;;1025254;28;20031;-73
2022/11/20 01:55:29;;;;;;;26.90;10.93;;;;;;;;;;1027025;28;20495;-74
2022/11/20 01:56:01;;;;;;;21.17;10.80;;;;;;;;;;1027342;28;20015;-73
2022/11/20 01:56:33;;;;;;;24.23;11.18;;;;;;;;;;1030581;28;20064;-73
2022/11/20 01:57:07;;;;;;;27.30;12.45;;;;;;;;;;1031355;28;20062;-74
2022/11/20 01:57:38;;;;;;;31.95;14.98;;;;;;;;;;1031527;28;20022;-72
2022/11/20 01:58:09;;;;;;;25.45;12.25;;;;;;;;;;1031535;28;20128;-72
2022/11/20 01:58:42;;;;;;;24.33;10.93;;;;;;;;;;1031284;28;20065;-73
2022/11/20 01:59:15;;;;;;;25.35;12.85;;;;;;;;;;1030058;28;20030;-74
2022/11/20 01:59:50;;;;;;;24.67;12.43;;;;;;;;;;1027561;28;20034;-73
2022/11/20 02:00:21;;;;;;;24.83;10.88;;;;;;;;;;1028271;28;20541;-73
2022/11/20 02:00:52;;;;;;;22.60;11.77;;;;;;;;;;1028212;28;20023;-73
2022/11/20 02:01:23;;;;;;;22.83;11.10;;;;;;;;;;1026719;28;20031;-73
2022/11/20 02:01:54;;;;;;;26.15;11.88;;;;;;;;;;1024598;28;20029;-73
2022/11/20 02:02:25;;;;;;;20.10;9.55;;;;;;;;;;1027324;28;20837;-72
2022/11/20 02:03:01;;;;;;;23.52;10.90;;;;;;;;;;1031483;28;20026;-72
2022/11/20 02:03:32;;;;;;;20.48;9.98;;;;;;;;;;1032284;28;20026;-73
2022/11/20 02:04:03;;;;;;;19.00;9.20;;;;;;;;;;1033354;28;20030;-72
2022/11/20 02:04:33;;;;;;;22.33;10.35;;;;;;;;;;1027447;28;20023;-72
2022/11/20 02:05:12;;;;;;;21.13;8.63;;;;;;;;;;1028506;28;20117;-72
2022/11/20 02:05:49;;;;;;;21.50;10.30;;;;;;;;;;1031864;28;20031;-72
2022/11/20 02:06:23;;;;;;;18.33;8.95;;;;;;;;;;1031175;28;20029;-72
2022/11/20 02:06:59;;;;;;;27.40;10.25;;;;;;;;;;1027026;28;20014;-72
2022/11/20 02:07:30;;;;;;;22.80;9.98;;;;;;;;;;1023387;29;20027;-72
2022/11/20 02:08:02;;;;;;;20.98;9.07;;;;;;;;;;1024774;28;20090;-72
2022/11/20 02:08:34;;;;;;;23.73;10.30;;;;;;;;;;1024786;28;20522;-72
2022/11/20 02:09:05;;;;;;;19.05;9.48;;;;;;;;;;1028182;28;20479;-72
2022/11/20 02:09:35;;;;;;;27.80;13.35;;;;;;;;;;1027749;28;20042;-72
2022/11/20 02:10:06;;;;;;;18.00;9.32;;;;;;;;;;1027542;28;20486;-72
2022/11/20 02:10:37;;;;;;;22.70;9.98;;;;;;;;;;1027482;28;20109;-72
2022/11/20 02:11:08;;;;;;;23.73;10.55;;;;;;;;;;1027045;28;20031;-72
2022/11/20 02:11:39;;;;;;;23.55;9.73;;;;;;;;;;1027753;28;20186;-72
2022/11/20 02:13:42;;;;;;;19.30;10.10;;;;;;;;;;1031555;28;20134;-72
2022/11/20 02:13:50;;;;;;;22.52;9.90;;;;;;;;;;1031254;28;20053;-72
2022/11/20 02:14:21;;;;;;;26.52;11.82;;;;;;;;;;1031620;28;20037;-72
2022/11/20 02:14:52;;;;;;;20.33;10.75;;;;;;;;;;1027400;28;20038;-72
2022/11/20 02:15:23;;;;;;;19.13;9.43;;;;;;;;;;1026783;28;20113;-72
2022/11/20 02:15:54;;;;;;;21.08;10.05;;;;;;;;;;1023303;28;20019;-72
2022/11/20 02:16:29;;;;;;;22.10;10.05;;;;;;;;;;1023668;28;20027;-72
2022/11/20 02:16:59;;;;;;;25.92;11.43;;;;;;;;;;1026091;28;20352;-72
2022/11/20 02:17:30;;;;;;;22.55;11.40;;;;;;;;;;1027274;28;20034;-72
2022/11/20 02:18:01;;;;;;;20.58;10.38;;;;;;;;;;1025745;28;20019;-72
2022/11/20 02:18:32;;;;;;;24.60;9.98;;;;;;;;;;1025437;28;20499;-72
2022/11/20 02:19:05;;;;;;;18.15;11.07;;;;;;;;;;1025209;28;20494;-72
2022/11/20 02:19:36;;;;;;;25.50;11.82;;;;;;;;;;1023466;29;20031;-72
2022/11/20 02:20:07;;;;;;;24.38;10.77;;;;;;;;;;1019795;29;20019;-72
2022/11/20 02:20:38;;;;;;;26.23;11.63;;;;;;;;;;1025813;28;20030;-72
2022/11/20 02:21:17;;;;;;;17.02;10.02;;;;;;;;;;1025659;28;20681;-72
2022/11/20 02:22:06;;;;;;;21.17;10.93;;;;;;;;;;1031311;28;20412;-72
2022/11/20 02:22:47;;;;;;;21.55;11.32;;;;;;;;;;1031526;28;20044;-72
2022/11/20 02:23:31;;;;;;;27.80;11.80;;;;;;;;;;1031001;28;20026;-71
2022/11/20 02:24:07;;;;;;;25.88;10.13;;;;;;;;;;1031923;28;20026;-72
2022/11/20 02:24:39;;;;;;;18.40;10.90;;;;;;;;;;1031617;28;20061;-72
2022/11/20 02:25:10;;;;;;;23.23;10.48;;;;;;;;;;1026958;28;20081;-72
2022/11/20 02:25:41;;;;;;;26.23;9.70;;;;;;;;;;1027613;28;20027;-72
2022/11/20 02:26:14;;;;;;;21.83;11.32;;;;;;;;;;1023756;28;20027;-72
2022/11/20 02:26:51;;;;;;;21.95;10.57;;;;;;;;;;1023431;29;20030;-72
2022/11/20 02:27:22;;;;;;;19.15;10.95;;;;;;;;;;1023578;29;20042;-72
2022/11/20 02:27:52;;;;;;;19.70;9.90;;;;;;;;;;1022547;28;20429;-72
2022/11/20 02:28:23;;;;;;;22.40;11.32;;;;;;;;;;1026801;28;20151;-72
2022/11/20 02:28:55;;;;;;;31.67;11.65;;;;;;;;;;1027431;28;20023;-72
2022/11/20 02:29:32;;;;;;;31.40;11.82;;;;;;;;;;1027817;28;20027;-72
2022/11/20 02:30:05;;;;;;;29.55;10.85;;;;;;;;;;1031181;28;20489;-72
2022/11/20 02:30:36;;;;;;;22.27;11.45;;;;;;;;;;1029458;28;20096;-72
2022/11/20 02:31:07;;;;;;;30.92;11.75;;;;;;;;;;1025234;28;20494;-72
2022/11/20 02:31:40;;;;;;;20.52;11.23;;;;;;;;;;1025341;28;20023;-72
2022/11/20 02:32:19;;;;;;;25.92;10.10;;;;;;;;;;1026930;28;20333;-72
2022/11/20 02:32:50;;;;;;;27.52;10.68;;;;;;;;;;1027507;28;20055;-72
2022/11/20 02:33:21;;;;;;;20.23;11.00;;;;;;;;;;1025981;28;20023;-72
2022/11/20 02:33:55;;;;;;;21.00;10.70;;;;;;;;;;1023210;29;20054;-72
2022/11/20 02:34:26;;;;;;;25.80;12.90;;;;;;;;;;1023837;28;20110;-72
2022/11/20 02:34:57;;;;;;;25.65;11.57;;;;;;;;;;1028104;28;20022;-72
2022/11/20 02:35:28;;;;;;;21.95;12.18;;;;;;;;;;1027922;28;20023;-72
2022/11/20 02:35:58;;;;;;;31.42;13.60;;;;;;;;;;1028940;28;20030;-72
2022/11/20 02:36:30;;;;;;;30.98;14.77;;;;;;;;;;1029508;28;20025;-72
2022/11/20 02:37:01;;;;;;;32.38;14.57;;;;;;;;;;1029660;28;20478;-72
2022/11/20 02:37:34;;;;;;;33.22;15.18;;;;;;;;;;1034632;28;20430;-72
2022/11/20 02:38:05;;;;;;;34.10;15.05;;;;;;;;;;1033323;28;20109;-72
2022/11/20 02:38:36;;;;;;;38.90;15.20;;;;;;;;;;1030914;28;20022;-72
2022/11/20 02:39:06;;;;;;;34.28;16.40;;;;;;;;;;1027225;28;20034;-72
2022/11/20 02:39:37;;;;;;;27.33;14.70;;;;;;;;;;1025826;28;20019;-72
2022/11/20 02:40:08;;;;;;;24.52;11.93;;;;;;;;;;1027523;28;20121;-72
2022/11/20 02:40:39;;;;;;;31.00;12.50;;;;;;;;;;1026629;28;20486;-72
2022/11/20 02:41:10;;;;;;;31.48;13.38;;;;;;;;;;1027271;28;20030;-73
2022/11/20 02:41:41;;;;;;;25.30;11.43;;;;;;;;;;1027567;28;20022;-72
2022/11/20 02:42:11;;;;;;;28.70;13.20;;;;;;;;;;1027649;28;20110;-72
2022/11/20 02:42:42;;;;;;;29.25;13.13;;;;;;;;;;1027219;28;20122;-72
2022/11/20 02:43:13;;;;;;;27.98;12.90;;;;;;;;;;1027547;28;20142;-72
2022/11/20 02:43:43;;;;;;;27.88;12.82;;;;;;;;;;1027282;28;20027;-72
2022/11/20 02:44:14;;;;;;;29.00;13.02;;;;;;;;;;1027884;28;20023;-72
2022/11/20 02:44:45;;;;;;;26.38;11.40;;;;;;;;;;1027149;28;20122;-72
2022/11/20 02:45:16;;;;;;;25.70;12.93;;;;;;;;;;1027324;28;20073;-72
2022/11/20 02:45:46;;;;;;;25.05;12.32;;;;;;;;;;1027366;28;20043;-72
2022/11/20 02:46:17;;;;;;;28.00;12.55;;;;;;;;;;1027297;28;20431;-73
2022/11/20 02:46:47;;;;;;;32.45;13.00;;;;;;;;;;1027190;28;20053;-72
2022/11/20 02:47:18;;;;;;;31.33;14.13;;;;;;;;;;1025156;28;20031;-72
2022/11/20 02:47:49;;;;;;;29.08;14.57;;;;;;;;;;1029421;28;20030;-72
2022/11/20 02:48:19;;;;;;;28.42;13.18;;;;;;;;;;1024762;28;20399;-72
2022/11/20 02:48:50;;;;;;;28.25;14.90;;;;;;;;;;1025020;28;20786;-72
2022/11/20 02:49:21;;;;;;;28.63;13.48;;;;;;;;;;1025157;28;20026;-72
2022/11/20 02:49:51;;;;;;;31.48;14.30;;;;;;;;;;1025400;28;20479;-72
2022/11/20 02:50:22;;;;;;;29.48;14.38;;;;;;;;;;1025574;28;20026;-72
2022/11/20 02:50:53;;;;;;;32.75;14.85;;;;;;;;;;1025159;28;20454;-72
2022/11/20 02:51:23;;;;;;;31.45;14.50;;;;;;;;;;1025932;28;20019;-72
2022/11/20 02:51:54;;;;;;;33.70;14.65;;;;;;;;;;1025131;28;20027;-72
2022/11/20 02:52:25;;;;;;;31.40;14.95;;;;;;;;;;1030751;28;20112;-72
2022/11/20 02:52:55;;;;;;;30.20;13.20;;;;;;;;;;1027673;28;20061;-72
2022/11/20 02:53:26;;;;;;;28.10;13.32;;;;;;;;;;1031638;28;20026;-72
2022/11/20 02:53:57;;;;;;;33.65;13.80;;;;;;;;;;1031544;28;20022;-72
2022/11/20 02:54:27;;;;;;;32.67;14.40;;;;;;;;;;1031478;28;20037;-72
2022/11/20 02:54:58;;;;;;;30.10;13.23;;;;;;;;;;1031447;28;20431;-73
2022/11/20 02:55:29;;;;;;;30.80;14.60;;;;;;;;;;1031446;28;20338;-72
2022/11/20 02:55:59;;;;;;;28.30;12.75;;;;;;;;;;1027227;28;20105;-72
2022/11/20 02:56:30;;;;;;;28.20;13.27;;;;;;;;;;1027787;28;20030;-72
2022/11/20 02:57:01;;;;;;;26.63;13.02;;;;;;;;;;1027918;28;20065;-73
2022/11/20 02:57:32;;;;;;;25.50;11.15;;;;;;;;;;1027812;28;20069;-73
2022/11/20 02:58:03;;;;;;;27.63;11.35;;;;;;;;;;1031706;28;20482;-72
2022/11/20 02:58:34;;;;;;;18.17;9.25;;;;;;;;;;1035392;28;20140;-72
2022/11/20 02:59:04;;;;;;;24.98;11.52;;;;;;;;;;1031083;28;20030;-72
2022/11/20 02:59:35;;;;;;;26.70;11.75;;;;;;;;;;1031537;28;20032;-72
2022/11/20 03:00:06;;;;;;;19.73;9.40;;;;;;;;;;1027140;28;20109;-72
2022/11/20 03:00:37;;;;;;;21.83;11.45;;;;;;;;;;1027611;28;20023;-72
2022/11/20 03:01:08;;;;;;;24.98;11.77;;;;;;;;;;1027201;28;20026;-72
2022/11/20 03:01:38;;;;;;;24.58;10.35;;;;;;;;;;1026932;28;20026;-72
2022/11/20 03:02:10;;;;;;;29.70;11.98;;;;;;;;;;1027149;28;20066;-72
2022/11/20 03:02:41;;;;;;;32.15;15.60;;;;;;;;;;1031221;28;20500;-72
2022/11/20 03:03:12;;;;;;;41.25;17.38;;;;;;;;;;1032111;28;20053;-73
2022/11/20 03:03:43;;;;;;;45.45;18.80;;;;;;;;;;1031370;28;20073;-73
2022/11/20 03:04:14;;;;;;;39.88;16.60;;;;;;;;;;1027255;28;20034;-72
2022/11/20 03:04:44;;;;;;;48.67;20.23;;;;;;;;;;1026370;28;20395;-72
2022/11/20 03:05:15;;;;;;;42.22;19.25;;;;;;;;;;1027567;28;20531;-72
2022/11/20 03:05:46;;;;;;;47.47;21.00;;;;;;;;;;1031179;28;20302;-72
2022/11/20 03:06:16;;;;;;;48.10;19.77;;;;;;;;;;1027780;28;20506;-73
2022/11/20 03:06:48;;;;;;;46.70;19.33;;;;;;;;;;1031018;28;20034;-72
2022/11/20 03:07:19;;;;;;;42.05;18.17;;;;;;;;;;1031447;28;20601;-72
2022/11/20 03:07:49;;;;;;;49.67;19.15;;;;;;;;;;1029426;28;20084;-72
2022/11/20 03:08:20;;;;;;;44.33;19.48;;;;;;;;;;1027344;28;21317;-72
2022/11/20 03:08:51;;;;;;;50.40;18.90;;;;;;;;;;1026875;28;20026;-72
2022/11/20 03:09:21;;;;;;;41.55;18.48;;;;;;;;;;1027347;28;20026;-72
2022/11/20 03:09:52;;;;;;;47.60;18.20;;;;;;;;;;1026262;28;20029;-72